createdAt,value
2017-08-28T00:01:51.262Z,23.52
2017-08-28T00:04:18.898Z,25.27
2017-08-28T00:06:46.461Z,21.55
2017-08-28T00:09:14.052Z,23.67
2017-08-28T00:11:41.654Z,22.52
2017-08-28T00:14:09.413Z,29.87
2017-08-28T00:16:37.037Z,21.55
2017-08-28T00:19:04.607Z,21.60
2017-08-28T00:21:32.207Z,18.30
2017-08-28T00:23:59.779Z,21.40
2017-08-28T00:26:27.730Z,23.33
2017-08-28T00:28:55.307Z,18.50
2017-08-28T00:31:22.878Z,20.90
2017-08-28T00:33:50.464Z,18.10
2017-08-28T00:36:18.890Z,23.60
2017-08-28T00:38:46.862Z,29.30
2017-08-28T00:41:14.451Z,24.50
2017-08-28T00:43:42.072Z,22.30
2017-08-28T00:46:09.707Z,28.70
2017-08-28T00:48:37.313Z,24.42
2017-08-28T00:51:04.895Z,26.23
2017-08-28T00:53:32.732Z,26.52
2017-08-28T00:56:00.315Z,22.20
2017-08-28T00:58:27.914Z,25.70
2017-08-28T01:00:55.543Z,23.02
2017-08-28T01:03:23.494Z,33.58
2017-08-28T01:05:51.503Z,27.92
2017-08-28T01:08:19.871Z,27.30
2017-08-28T01:10:47.630Z,22.75
2017-08-28T01:13:15.451Z,24.40
2017-08-28T01:15:43.230Z,28.02
2017-08-28T01:18:11.065Z,34.55
2017-08-28T01:20:38.816Z,25.80
2017-08-28T01:23:06.712Z,33.03
2017-08-28T01:25:34.534Z,25.45
2017-08-28T01:28:02.102Z,27.35
2017-08-28T01:30:29.806Z,24.83
2017-08-28T01:32:57.754Z,20.45
2017-08-28T01:35:25.329Z,24.52
2017-08-28T01:37:52.926Z,20.12
2017-08-28T01:40:20.509Z,22.50
2017-08-28T01:42:48.083Z,20.50
2017-08-28T01:45:15.728Z,25.25
2017-08-28T01:47:43.302Z,17.37
2017-08-28T01:50:10.934Z,22.98
2017-08-28T01:52:38.568Z,30.62
2017-08-28T01:55:06.142Z,26.60
2017-08-28T01:57:33.708Z,25.17
2017-08-28T02:00:01.307Z,25.88
2017-08-28T02:02:28.871Z,29.77
2017-08-28T02:04:56.435Z,22.50
2017-08-28T02:07:24.050Z,36.13
2017-08-28T02:09:51.620Z,32.67
2017-08-28T02:12:19.185Z,25.73
2017-08-28T02:14:46.826Z,28.02
2017-08-28T02:17:14.403Z,25.73
2017-08-28T02:19:41.995Z,22.73
2017-08-28T02:22:09.610Z,24.33
2017-08-28T02:24:37.172Z,30.60
2017-08-28T02:27:04.805Z,30.08
2017-08-28T02:29:32.643Z,24.48
2017-08-28T02:32:00.228Z,24.17
2017-08-28T02:34:27.797Z,27.52
2017-08-28T02:36:55.398Z,24.73
2017-08-28T02:39:22.972Z,22.62
2017-08-28T02:41:50.538Z,25.10
2017-08-28T02:44:18.161Z,26.40
2017-08-28T02:46:45.722Z,26.12
2017-08-28T02:49:13.284Z,29.05
2017-08-28T02:51:40.910Z,25.15
2017-08-28T02:54:08.482Z,18.45
2017-08-28T02:56:36.052Z,28.58
2017-08-28T02:59:03.684Z,27.45
2017-08-28T03:01:31.254Z,38.13
2017-08-28T03:03:58.814Z,42.50
2017-08-28T03:06:26.411Z,31.83
2017-08-28T03:08:53.978Z,29.12
2017-08-28T03:11:21.550Z,24.90
2017-08-28T03:13:49.150Z,32.42
2017-08-28T03:16:16.714Z,27.80
2017-08-28T03:18:44.275Z,26.65
2017-08-28T03:21:11.900Z,20.35
2017-08-28T03:23:39.458Z,22.15
2017-08-28T03:26:07.018Z,26.23
2017-08-28T03:28:34.991Z,20.67
2017-08-28T03:31:02.572Z,25.37
2017-08-28T03:33:30.137Z,22.45
2017-08-28T03:35:57.738Z,23.10
2017-08-28T03:38:25.333Z,19.70
2017-08-28T03:40:52.919Z,27.60
2017-08-28T03:43:20.755Z,26.15
2017-08-28T03:45:48.340Z,18.80
2017-08-28T03:48:15.929Z,26.98
2017-08-28T03:50:43.554Z,30.27
2017-08-28T03:53:11.135Z,26.10
2017-08-28T03:55:38.720Z,20.40
2017-08-28T03:58:06.345Z,21.75
2017-08-28T04:00:33.933Z,22.45
2017-08-28T04:03:01.583Z,21.67
2017-08-28T04:05:29.216Z,19.67
2017-08-28T04:07:56.798Z,21.95
2017-08-28T04:10:24.382Z,20.88
2017-08-28T04:12:51.986Z,17.77
2017-08-28T04:15:19.574Z,18.45
2017-08-28T04:17:47.135Z,18.90
2017-08-28T04:20:14.742Z,17.98
2017-08-28T04:22:42.314Z,16.55
2017-08-28T04:25:09.912Z,23.27
2017-08-28T04:27:37.545Z,21.85
2017-08-28T04:30:05.422Z,24.70
2017-08-28T04:32:32.986Z,26.87
2017-08-28T04:35:00.611Z,52.70
2017-08-28T04:37:28.201Z,26.77
2017-08-28T04:39:55.907Z,53.40
2017-08-28T04:42:23.506Z,52.65
2017-08-28T04:44:51.080Z,68.85
2017-08-28T04:47:18.662Z,21.90
2017-08-28T04:49:46.263Z,20.45
2017-08-28T04:52:13.842Z,24.30
2017-08-28T04:54:41.415Z,20.10
2017-08-28T04:57:09.057Z,15.70
2017-08-28T04:59:36.676Z,15.65
2017-08-28T05:02:04.239Z,16.23
2017-08-28T05:04:31.839Z,18.23
2017-08-28T05:06:59.409Z,16.25
2017-08-28T05:09:27.734Z,17.52
2017-08-28T05:11:55.355Z,13.13
2017-08-28T05:14:22.934Z,12.30
2017-08-28T05:16:50.503Z,14.87
2017-08-28T05:19:18.101Z,13.40
2017-08-28T05:21:45.662Z,10.50
2017-08-28T05:24:13.259Z,10.50
2017-08-28T05:26:40.851Z,13.18
2017-08-28T05:29:08.418Z,12.23
2017-08-28T05:31:36.099Z,12.43
2017-08-28T05:34:03.703Z,16.83
2017-08-28T05:36:31.263Z,15.38
2017-08-28T05:38:58.821Z,13.10
2017-08-28T05:41:26.414Z,16.90
2017-08-28T05:43:53.981Z,14.05
2017-08-28T05:46:21.550Z,12.40
2017-08-28T05:48:49.160Z,17.45
2017-08-28T05:51:16.746Z,22.77
2017-08-28T05:53:44.315Z,19.55
2017-08-28T05:56:11.930Z,21.35
2017-08-28T05:58:39.498Z,22.98
2017-08-28T06:01:07.088Z,22.35
2017-08-28T06:03:34.686Z,22.17
2017-08-28T06:06:02.252Z,25.95
2017-08-28T06:08:29.895Z,21.20
2017-08-28T06:10:57.508Z,29.65
2017-08-28T06:13:25.070Z,32.10
2017-08-28T06:15:52.631Z,26.37
2017-08-28T06:18:20.287Z,24.37
2017-08-28T06:20:47.852Z,28.65
2017-08-28T06:23:15.430Z,34.03
2017-08-28T06:25:43.034Z,39.03
2017-08-28T06:28:10.615Z,29.40
2017-08-28T06:30:38.196Z,44.17
2017-08-28T06:33:06.110Z,44.47
2017-08-28T06:35:33.746Z,45.95
2017-08-28T06:38:01.330Z,45.75
2017-08-28T06:40:28.939Z,57.95
2017-08-28T06:42:56.521Z,53.33
2017-08-28T06:45:24.094Z,51.17
2017-08-28T06:47:51.719Z,55.80
2017-08-28T06:50:19.294Z,54.58
2017-08-28T06:52:46.869Z,54.75
2017-08-28T06:55:14.486Z,51.70
2017-08-28T06:57:42.087Z,61.17
2017-08-28T07:00:09.655Z,64.20
2017-08-28T07:02:37.538Z,75.85
2017-08-28T07:05:05.121Z,69.60
2017-08-28T07:07:32.704Z,68.45
2017-08-28T07:10:00.346Z,65.60
2017-08-28T07:12:27.926Z,69.68
2017-08-28T07:14:55.494Z,59.75
2017-08-28T07:17:23.102Z,55.70
2017-08-28T07:19:50.675Z,75.43
2017-08-28T07:22:18.253Z,66.35
2017-08-28T07:24:45.897Z,56.85
2017-08-28T07:27:13.466Z,52.97
2017-08-28T07:29:41.055Z,55.72
2017-08-28T07:32:08.843Z,50.50
2017-08-28T07:34:36.443Z,42.38
2017-08-28T07:37:04.019Z,52.08
2017-08-28T07:39:31.632Z,51.72
2017-08-28T07:41:59.218Z,49.47
2017-08-28T07:44:26.826Z,44.90
2017-08-28T07:46:54.453Z,56.28
2017-08-28T07:49:22.210Z,53.40
2017-08-28T07:51:49.785Z,51.53
2017-08-28T07:54:17.706Z,40.85
2017-08-28T07:56:45.568Z,49.10
2017-08-28T07:59:13.150Z,45.08
2017-08-28T08:01:40.779Z,66.07
2017-08-28T08:04:08.362Z,39.30
2017-08-28T08:06:36.321Z,56.83
2017-08-28T08:09:04.234Z,39.53
2017-08-28T08:11:31.816Z,45.65
2017-08-28T08:13:59.606Z,47.92
2017-08-28T08:16:27.206Z,51.20
2017-08-28T08:18:54.903Z,43.38
2017-08-28T08:21:23.432Z,42.33
2017-08-28T08:23:52.334Z,44.60
2017-08-28T08:26:20.270Z,39.92
2017-08-28T08:28:47.878Z,44.83
2017-08-28T08:31:15.906Z,41.70
2017-08-28T08:33:49.103Z,44.05
2017-08-28T08:36:16.714Z,60.95
2017-08-28T08:38:44.315Z,49.95
2017-08-28T08:41:11.902Z,65.50
2017-08-28T08:43:39.499Z,48.47
2017-08-28T08:46:07.123Z,44.17
2017-08-28T08:48:34.697Z,40.78
2017-08-28T08:51:02.290Z,40.92
2017-08-28T08:53:29.945Z,46.72
2017-08-28T08:55:57.522Z,60.55
2017-08-28T08:58:25.167Z,63.10
2017-08-28T09:00:52.775Z,53.30
2017-08-28T09:03:26.017Z,59.50
2017-08-28T09:05:53.638Z,61.40
2017-08-28T09:08:21.212Z,57.33
2017-08-28T09:10:48.817Z,52.30
2017-08-28T09:13:16.434Z,56.33
2017-08-28T09:15:44.006Z,52.97
2017-08-28T09:18:11.601Z,62.55
2017-08-28T09:20:39.366Z,53.25
2017-08-28T09:23:06.929Z,52.90
2017-08-28T09:25:34.499Z,56.25
2017-08-28T09:28:02.099Z,52.47
2017-08-28T09:30:29.663Z,50.67
2017-08-28T09:32:57.225Z,53.97
2017-08-28T09:35:24.859Z,45.72
2017-08-28T09:37:52.766Z,49.72
2017-08-28T09:40:20.346Z,50.63
2017-08-28T09:42:47.959Z,50.08
2017-08-28T09:45:15.529Z,52.97
2017-08-28T09:47:43.114Z,63.15
2017-08-28T09:50:10.740Z,45.53
2017-08-28T09:52:38.307Z,51.88
2017-08-28T09:55:05.889Z,46.40
2017-08-28T09:57:33.507Z,46.28
2017-08-28T10:00:01.079Z,55.22
2017-08-28T10:02:28.653Z,57.83
2017-08-28T10:04:56.336Z,58.33
2017-08-28T10:07:23.979Z,56.97
2017-08-28T10:09:51.570Z,56.42
2017-08-28T10:12:19.192Z,55.03
2017-08-28T10:14:46.764Z,51.40
2017-08-28T10:17:14.337Z,53.47
2017-08-28T10:19:41.946Z,53.47
2017-08-28T10:22:09.508Z,47.92
2017-08-28T10:24:37.073Z,64.55
2017-08-28T10:27:09.174Z,53.80
2017-08-28T10:29:55.914Z,45.72
2017-08-28T10:32:24.822Z,38.13
2017-08-28T10:35:10.201Z,33.93
2017-08-28T10:37:38.964Z,28.50
2017-08-28T10:40:06.697Z,31.97
2017-08-28T10:42:34.291Z,42.37
2017-08-28T10:45:01.890Z,33.47
2017-08-28T10:47:29.472Z,35.00
2017-08-28T10:49:57.049Z,27.80
2017-08-28T10:52:24.679Z,28.10
2017-08-28T10:54:52.350Z,27.80
2017-08-28T10:57:20.052Z,26.60
2017-08-28T10:59:47.973Z,25.60
2017-08-28T11:02:15.652Z,30.47
2017-08-28T11:04:43.252Z,23.00
2017-08-28T11:07:10.892Z,30.33
2017-08-28T11:09:38.463Z,32.47
2017-08-28T11:12:06.049Z,28.00
2017-08-28T11:14:33.693Z,28.10
2017-08-28T11:17:01.272Z,31.97
2017-08-28T11:19:28.853Z,29.33
2017-08-28T11:21:56.498Z,34.13
2017-08-28T11:24:24.370Z,29.60
2017-08-28T11:26:51.975Z,25.83
2017-08-28T11:29:19.956Z,25.60
2017-08-28T11:31:47.563Z,25.83
2017-08-28T11:34:15.134Z,20.80
2017-08-28T11:36:42.762Z,20.60
2017-08-28T11:39:10.359Z,22.27
2017-08-28T11:41:37.934Z,22.67
2017-08-28T11:44:05.833Z,28.00
2017-08-28T11:46:33.396Z,28.47
2017-08-28T11:49:00.962Z,21.93
2017-08-28T11:51:28.604Z,22.37
2017-08-28T11:53:56.181Z,24.60
2017-08-28T11:56:23.768Z,21.87
2017-08-28T11:58:51.537Z,22.83
2017-08-28T12:01:19.109Z,17.57
2017-08-28T12:03:46.678Z,20.23
2017-08-28T12:06:14.310Z,16.50
2017-08-28T12:08:41.881Z,14.30
2017-08-28T12:11:09.456Z,17.37
2017-08-28T12:13:37.062Z,16.07
2017-08-28T12:16:04.854Z,14.77
2017-08-28T12:18:32.459Z,14.97
2017-08-28T12:21:00.182Z,14.10
2017-08-28T12:23:27.765Z,17.50
2017-08-28T12:25:55.345Z,11.10
2017-08-28T12:28:23.244Z,13.90
2017-08-28T12:30:50.812Z,16.67
2017-08-28T12:33:18.407Z,19.80
2017-08-28T12:35:46.018Z,12.40
2017-08-28T12:38:13.612Z,14.47
2017-08-28T12:40:41.219Z,15.70
2017-08-28T12:43:08.839Z,15.50
2017-08-28T12:45:36.411Z,21.83
2017-08-28T12:48:03.993Z,12.97
2017-08-28T12:50:31.768Z,11.70
2017-08-28T12:52:59.346Z,13.70
2017-08-28T12:55:26.934Z,10.97
2017-08-28T12:57:54.527Z,11.07
2017-08-28T13:00:22.091Z,11.60
2017-08-28T13:02:49.682Z,11.10
2017-08-28T13:05:17.279Z,14.13
2017-08-28T13:07:44.873Z,16.73
2017-08-28T13:10:12.450Z,9.60
2017-08-28T13:12:41.457Z,8.23
2017-08-28T13:15:18.396Z,12.00
2017-08-28T13:17:56.244Z,10.90
2017-08-28T13:20:38.010Z,13.10
2017-08-28T13:23:21.776Z,19.87
2017-08-28T13:26:12.375Z,17.33
2017-08-28T13:34:48.255Z,12.63
2017-08-28T13:40:38.200Z,15.77
2017-08-28T13:43:15.538Z,20.77
2017-08-28T13:45:51.549Z,17.33
2017-08-28T13:51:24.033Z,14.97
2017-08-28T13:53:55.744Z,16.00
2017-08-28T13:59:34.939Z,13.10
2017-08-28T14:02:22.913Z,15.00
2017-08-28T14:04:51.448Z,15.60
2017-08-28T14:07:43.005Z,20.07
2017-08-28T14:10:20.589Z,13.20
2017-08-28T14:12:52.054Z,23.00
2017-08-28T14:18:28.499Z,12.10
2017-08-28T14:20:57.966Z,16.57
2017-08-28T14:23:25.573Z,10.73
2017-08-28T14:25:53.157Z,15.10
2017-08-28T14:28:20.729Z,14.13
2017-08-28T14:30:48.327Z,17.00
2017-08-28T14:33:15.916Z,16.77
2017-08-28T14:35:43.778Z,20.93
2017-08-28T14:38:11.363Z,20.33
2017-08-28T14:40:38.935Z,12.80
2017-08-28T14:43:06.526Z,14.00
2017-08-28T14:45:34.117Z,17.73
2017-08-28T14:48:01.945Z,13.40
2017-08-28T14:50:29.537Z,15.50
2017-08-28T14:52:57.102Z,10.63
2017-08-28T14:55:24.699Z,11.63
2017-08-28T14:57:52.270Z,13.53
2017-08-28T15:00:20.127Z,14.27
2017-08-28T15:02:47.683Z,14.07
2017-08-28T15:05:15.259Z,12.23
2017-08-28T15:07:42.854Z,15.30
2017-08-28T15:10:10.436Z,16.10
2017-08-28T15:12:38.243Z,13.43
2017-08-28T15:15:05.820Z,17.00
2017-08-28T15:17:33.445Z,20.40
2017-08-28T15:20:01.042Z,12.13
2017-08-28T15:22:28.622Z,11.97
2017-08-28T15:24:56.406Z,12.97
2017-08-28T15:27:23.992Z,10.80
2017-08-28T15:29:51.560Z,12.07
2017-08-28T15:32:19.146Z,13.10
2017-08-28T15:34:46.719Z,10.20
2017-08-28T15:37:14.437Z,13.37
2017-08-28T15:39:42.013Z,12.10
2017-08-28T15:42:09.607Z,12.50
2017-08-28T15:44:37.216Z,10.07
2017-08-28T15:47:04.825Z,10.07
2017-08-28T15:49:32.576Z,15.03
2017-08-28T15:52:00.176Z,10.40
2017-08-28T15:54:27.737Z,13.93
2017-08-28T15:56:55.323Z,16.30
2017-08-28T15:59:22.923Z,17.10
2017-08-28T16:01:50.751Z,12.60
2017-08-28T16:04:18.315Z,15.70
2017-08-28T16:06:45.875Z,15.70
2017-08-28T16:09:13.607Z,11.50
2017-08-28T16:11:41.189Z,11.03
2017-08-28T16:14:12.755Z,18.23
2017-08-28T16:16:40.322Z,13.70
2017-08-28T16:19:07.894Z,17.83
2017-08-28T16:21:35.479Z,10.30
2017-08-28T16:24:03.051Z,15.00
2017-08-28T16:26:30.848Z,16.63
2017-08-28T16:28:58.439Z,16.50
2017-08-28T16:31:26.021Z,14.40
2017-08-28T16:33:53.622Z,13.40
2017-08-28T16:36:21.206Z,14.40
2017-08-28T16:38:49.851Z,12.70
2017-08-28T16:41:17.426Z,17.10
2017-08-28T16:43:45.170Z,18.23
2017-08-28T16:46:12.756Z,13.83
2017-08-28T16:48:40.339Z,11.73
2017-08-28T16:51:07.998Z,10.07
2017-08-28T16:53:35.938Z,10.27
2017-08-28T16:56:03.570Z,11.10
2017-08-28T16:58:31.478Z,15.77
2017-08-28T17:00:59.150Z,16.60
2017-08-28T17:03:26.775Z,13.40
2017-08-28T17:05:54.403Z,13.20
2017-08-28T17:08:21.992Z,17.23
2017-08-28T17:10:49.587Z,18.43
2017-08-28T17:13:17.410Z,11.10
2017-08-28T17:15:45.160Z,13.50
2017-08-28T17:18:12.794Z,15.40
2017-08-28T17:20:40.446Z,12.03
2017-08-28T17:23:08.057Z,12.90
2017-08-28T17:25:35.768Z,13.87
2017-08-28T17:28:03.875Z,38.83
2017-08-28T17:30:31.499Z,12.10
2017-08-28T17:32:59.222Z,19.60
2017-08-28T17:35:26.855Z,25.30
2017-08-28T17:37:54.554Z,22.83
2017-08-28T17:40:22.202Z,18.07
2017-08-28T17:42:49.800Z,17.27
2017-08-28T17:45:17.591Z,20.70
2017-08-28T17:47:45.162Z,22.17
2017-08-28T17:50:12.740Z,29.73
2017-08-28T17:52:40.382Z,16.60
2017-08-28T17:55:07.981Z,20.40
2017-08-28T17:57:35.742Z,43.67
2017-08-28T18:00:03.342Z,26.30
2017-08-28T18:02:30.966Z,42.60
2017-08-28T18:04:58.573Z,176.50
2017-08-28T18:07:26.195Z,175.40
2017-08-28T18:09:54.286Z,85.53
2017-08-28T18:12:21.875Z,358.43
2017-08-28T18:14:49.546Z,216.53
2017-08-28T18:17:17.180Z,64.70
2017-08-28T18:19:44.809Z,184.07
2017-08-28T18:22:12.679Z,234.37
2017-08-28T18:24:44.435Z,311.20
2017-08-28T18:27:12.927Z,589.37
2017-08-28T18:29:40.706Z,455.10
2017-08-28T18:32:08.327Z,245.73
2017-08-28T18:34:35.997Z,174.57
2017-08-28T18:37:03.688Z,236.33
2017-08-28T18:39:31.760Z,377.10
2017-08-28T18:41:59.349Z,292.40
2017-08-28T18:44:26.957Z,126.73
2017-08-28T18:46:54.577Z,240.40
2017-08-28T18:49:22.217Z,111.57
2017-08-28T18:51:49.846Z,35.83
2017-08-28T18:54:17.439Z,38.63
2017-08-28T18:56:45.023Z,25.40
2017-08-28T18:59:12.643Z,25.83
2017-08-28T19:01:41.099Z,23.40
2017-08-28T19:04:09.633Z,27.77
2017-08-28T19:06:37.210Z,31.20
2017-08-28T19:09:04.845Z,23.13
2017-08-28T19:11:32.506Z,27.87
2017-08-28T19:14:00.231Z,21.00
2017-08-28T19:16:28.062Z,27.93
2017-08-28T19:18:56.524Z,25.23
2017-08-28T19:21:24.263Z,23.70
2017-08-28T19:23:51.867Z,35.77
2017-08-28T19:26:19.459Z,57.83
2017-08-28T19:28:47.196Z,43.00
2017-08-28T19:31:14.813Z,23.73
2017-08-28T19:33:52.671Z,61.50
2017-08-28T19:49:55.282Z,18.07
2017-08-28T20:09:06.519Z,314.70
2017-08-28T20:11:34.274Z,258.43
2017-08-28T20:14:02.008Z,100.80
2017-08-28T20:16:29.949Z,25.00
2017-08-28T20:18:57.634Z,32.30
2017-08-28T20:21:25.426Z,28.07
2017-08-28T20:23:53.079Z,25.50
2017-08-28T20:26:20.762Z,25.40
2017-08-28T20:28:48.466Z,40.63
2017-08-28T20:31:16.375Z,28.20
2017-08-28T20:33:44.147Z,28.37
2017-08-28T20:36:11.819Z,24.03
2017-08-28T20:38:39.537Z,22.83
2017-08-28T20:41:07.210Z,32.50
2017-08-28T20:43:34.938Z,27.23
2017-08-28T20:46:02.764Z,26.00
2017-08-28T20:48:30.430Z,27.75
2017-08-28T20:50:58.227Z,32.97
2017-08-28T20:53:26.166Z,24.15
2017-08-28T20:55:53.863Z,25.50
2017-08-28T20:58:21.914Z,28.35
2017-08-28T21:00:49.582Z,22.05
2017-08-28T21:03:17.238Z,28.27
2017-08-28T21:05:45.357Z,26.33
2017-08-28T21:08:13.037Z,26.15
2017-08-28T21:10:41.584Z,32.80
2017-08-28T21:13:09.290Z,27.93
2017-08-28T21:15:36.954Z,23.48
2017-08-28T21:18:04.634Z,31.35
2017-08-28T21:20:32.333Z,28.85
2017-08-28T21:23:00.507Z,26.15
2017-08-28T21:25:28.172Z,32.10
2017-08-28T21:27:55.835Z,34.75
2017-08-28T21:30:23.512Z,34.50
2017-08-28T21:32:51.199Z,35.35
2017-08-28T21:35:19.168Z,30.12
2017-08-28T21:37:46.830Z,39.10
2017-08-28T21:40:14.507Z,30.73
2017-08-28T21:42:42.341Z,35.35
2017-08-28T21:45:10.005Z,31.98
2017-08-28T21:47:37.870Z,32.28
2017-08-28T21:50:05.554Z,34.05
2017-08-28T21:52:33.250Z,29.48
2017-08-28T21:55:01.015Z,33.42
2017-08-28T21:57:28.719Z,45.38
2017-08-28T21:59:56.722Z,34.03
2017-08-28T22:02:24.377Z,36.90
2017-08-28T22:04:56.876Z,33.83
2017-08-28T22:07:24.894Z,40.65
2017-08-28T22:09:52.562Z,29.40
2017-08-28T22:12:20.426Z,32.80
2017-08-28T22:14:48.070Z,27.95
2017-08-28T22:17:15.726Z,26.98
2017-08-28T22:19:43.409Z,26.90
2017-08-28T22:22:11.068Z,31.30
2017-08-28T22:24:40.658Z,28.73
2017-08-28T22:27:08.338Z,35.92
2017-08-28T22:29:36.087Z,32.67
2017-08-28T22:32:03.783Z,32.10
2017-08-28T22:34:31.437Z,40.80
2017-08-28T22:36:59.321Z,35.05
2017-08-28T22:39:27.745Z,42.40
2017-08-28T22:41:55.391Z,47.40
2017-08-28T22:44:23.523Z,41.95
2017-08-28T22:46:51.173Z,48.28
2017-08-28T22:49:19.217Z,58.33
2017-08-28T22:51:46.879Z,37.78
2017-08-28T22:54:15.517Z,45.95
2017-08-28T22:56:43.328Z,43.80
2017-08-28T22:59:11.040Z,39.85
2017-08-28T23:01:38.734Z,44.45
2017-08-28T23:04:06.388Z,94.62
2017-08-28T23:06:34.820Z,56.03
2017-08-28T23:09:02.854Z,46.80
2017-08-28T23:11:30.638Z,74.85
2017-08-28T23:13:58.362Z,121.18
2017-08-28T23:16:26.041Z,177.98
2017-08-28T23:18:53.727Z,113.80
2017-08-28T23:21:21.579Z,346.67
2017-08-28T23:23:49.239Z,127.55
2017-08-28T23:26:17.079Z,105.70
2017-08-28T23:28:44.813Z,97.62
2017-08-28T23:31:12.547Z,136.95
2017-08-28T23:33:40.243Z,325.45
2017-08-28T23:36:07.934Z,707.03
2017-08-28T23:38:35.770Z,165.25
2017-08-28T23:41:03.435Z,47.30
2017-08-28T23:43:31.125Z,47.55
2017-08-28T23:45:58.948Z,46.00
2017-08-28T23:48:26.680Z,54.63
2017-08-28T23:50:54.636Z,98.10
2017-08-28T23:53:22.315Z,354.85
2017-08-28T23:55:49.984Z,93.65
2017-08-28T23:58:17.676Z,60.78
